Terminal Aerodrome Forecast
Issued by NWS Pueblo, CO

Home | Current Version | Previous Version | Text Only | Print | Product List | Glossary On
Versions: 1 2 3 4 5 6 7 8 9 10 11 12 13 14 15 16 17 18 19 20 21 22 23 24 25 26 27 28
000
FTUS45 KPUB 291752 CCB
TAFPUB
TAF COR
KPUB 291752Z 2918/3018 15012KT P6SM SCT080
      TEMPO 2918/2920 FEW030
     FM292300 12010G20KT P6SM VCTS SCT070CB BKN120
     FM300400 34006KT P6SM FEW015 SCT030=

USA.gov is the U.S. government's official web portal to all federal, state and local government web resources and services.